Time;durP1;ratioP1;P1;durP2;ratioP2;P2;SDS_P1;SDS_P2;PMS_P1;PMS_P2;Temp;Humidity;BMP_temperature;BMP_pressure;BME280_temperature;BME280_humidity;BME280_pressure;Samples;Min_cycle;Max_cycle;Signal;HPM_P1;HPM_P2
2023/01/28 00:00:58;;;;;;;9.33;6.20;;;0.50;83.00;;;0.24;77.77;98536.94;5084890;28;20456;-77
2023/01/28 00:03:27;;;;;;;6.73;5.53;;;0.70;82.80;;;0.14;77.74;98536.06;5077942;28;20453;-75
2023/01/28 00:06:03;;;;;;;6.73;5.33;;;0.70;81.60;;;0.23;77.25;98534.41;5078162;28;20469;-76
2023/01/28 00:08:30;;;;;;;7.50;6.13;;;0.80;81.80;;;0.21;77.78;98534.53;5074200;28;20470;-79
2023/01/28 00:10:59;;;;;;;7.70;5.43;;;0.70;82.20;;;0.42;77.17;98523.78;5082244;28;20804;-79
2023/01/28 00:13:29;;;;;;;7.50;5.40;;;0.80;82.50;;;0.39;76.81;98526.75;5087274;28;20647;-81
2023/01/28 00:15:57;;;;;;;6.37;5.07;;;0.90;82.50;;;0.36;77.17;98515.53;5088720;28;20472;-77
2023/01/28 00:18:25;;;;;;;7.13;5.70;;;0.90;81.90;;;0.48;76.75;98511.78;5088859;28;20453;-77
2023/01/28 00:20:59;;;;;;;7.07;4.90;;;0.90;81.60;;;0.62;76.11;98517.66;5094867;28;20965;-79
2023/01/28 00:23:28;;;;;;;8.23;5.03;;;1.00;81.00;;;0.34;76.16;98510.38;5100750;28;20443;-77
2023/01/28 00:25:58;;;;;;;6.70;5.43;;;1.00;80.50;;;0.31;76.78;98521.28;5100208;28;20467;-77
2023/01/28 00:28:25;;;;;;;7.50;5.63;;;0.90;80.60;;;0.33;77.45;98523.78;5092465;28;20443;-79
2023/01/28 00:30:54;;;;;;;7.07;5.40;;;0.80;81.90;;;0.21;77.82;98523.91;5078110;28;20449;-80
2023/01/28 00:33:21;;;;;;;7.50;5.60;;;0.80;81.90;;;0.21;77.96;98510.59;5085298;28;20467;-81
2023/01/28 00:35:59;;;;;;;8.83;6.10;;;0.70;82.60;;;0.46;77.14;98513.72;5087486;28;20459;-77
2023/01/28 00:38:26;;;;;;;6.73;5.67;;;0.80;83.40;;;0.67;76.07;98510.09;5086897;28;20453;-79
2023/01/28 00:40:53;;;;;;;7.20;6.33;;;1.00;81.70;;;0.62;76.36;98515.00;5085849;28;21132;-79
2023/01/28 00:43:21;;;;;;;6.47;5.60;;;1.00;81.80;;;0.65;76.08;98509.41;5075313;28;20952;-79
2023/01/28 00:45:48;;;;;;;7.00;5.50;;;1.00;81.30;;;0.69;75.73;98513.47;5074407;28;20466;-80
2023/01/28 00:48:17;;;;;;;7.03;5.87;;;1.10;81.00;;;0.19;76.72;98479.84;5075733;28;21261;-77
2023/01/28 00:50:45;;;;;;;6.43;5.80;;;1.00;80.80;;;0.27;77.38;98496.78;5078000;28;20555;-76
2023/01/28 00:53:12;;;;;;;6.53;5.43;;;0.80;81.40;;;0.66;76.47;98511.06;5085446;28;20458;-77
2023/01/28 00:55:39;;;;;;;6.83;5.50;;;1.00;82.10;;;0.59;76.25;98513.44;5078379;28;20462;-77
2023/01/28 00:58:06;;;;;;;6.30;5.30;;;1.00;81.30;;;0.68;76.19;98517.09;5086459;28;20454;-80
2023/01/28 01:00:33;;;;;;;6.57;5.53;;;1.00;81.60;;;0.70;75.52;98521.31;5083689;28;20462;-80
2023/01/28 01:03:01;;;;;;;6.97;6.27;;;1.10;80.80;;;0.59;76.29;98508.13;5084465;28;20457;-76
2023/01/28 01:05:30;;;;;;;8.30;6.03;;;1.10;80.50;;;0.61;76.15;98516.84;5080487;28;20528;-80
2023/01/28 01:07:57;;;;;;;7.50;6.10;;;1.10;80.30;;;0.54;76.54;98521.88;5088818;28;20458;-78
2023/01/28 01:10:24;;;;;;;6.27;5.40;;;1.10;80.60;;;0.65;75.91;98528.00;5086284;28;20451;-80
2023/01/28 01:12:52;;;;;;;8.87;6.37;;;1.10;80.60;;;0.54;76.32;98515.69;5088749;28;20447;-80
2023/01/28 01:15:20;;;;;;;7.77;5.67;;;1.10;80.70;;;0.49;76.26;98502.81;5087411;28;20462;-79
2023/01/28 01:17:49;;;;;;;6.57;5.20;;;1.10;80.90;;;0.73;75.69;98525.50;5077020;28;20451;-81
2023/01/28 01:20:19;;;;;;;8.90;6.23;;;1.20;80.60;;;0.61;75.97;98522.16;5081783;28;20466;-81
2023/01/28 01:22:48;;;;;;;6.90;5.60;;;1.20;80.30;;;0.61;76.09;98526.63;5085248;28;20434;-83
2023/01/28 01:25:17;;;;;;;7.00;6.17;;;1.20;80.20;;;0.70;75.78;98528.47;5087803;28;20470;-80
2023/01/28 01:27:45;;;;;;;7.20;5.60;;;1.20;80.30;;;0.65;76.03;98534.19;5089079;28;20458;-81
2023/01/28 01:30:14;;;;;;;7.27;5.90;;;1.20;80.20;;;0.61;76.29;98524.81;5084045;28;20916;-81
2023/01/28 01:32:41;;;;;;;7.40;5.73;;;1.10;80.70;;;0.67;75.87;98518.06;5091545;28;20472;-81
2023/01/28 01:35:11;;;;;;;7.43;5.97;;;1.20;80.60;;;0.72;76.12;98529.16;5083415;28;20462;-78
2023/01/28 01:37:38;;;;;;;6.57;5.50;;;1.20;80.60;;;0.53;76.37;98541.47;5079676;28;20461;-76
2023/01/28 01:40:10;;;;;;;7.03;5.80;;;1.00;80.60;;;0.42;76.85;98518.47;5074221;28;20563;-77
2023/01/28 01:42:37;;;;;;;7.20;5.40;;;1.00;81.60;;;0.55;76.76;98546.63;5080380;28;20470;-76
2023/01/28 01:45:07;;;;;;;7.40;5.93;;;1.00;81.70;;;0.44;77.17;98539.63;5098029;28;20450;-78
2023/01/28 01:47:42;;;;;;;7.37;6.60;;;1.00;82.00;;;0.44;76.82;98526.31;5078093;28;20508;-76
2023/01/28 01:50:23;;;;;;;9.03;6.83;;;1.00;81.90;;;0.46;77.42;98545.63;5086907;28;20510;-78
2023/01/28 01:52:55;;;;;;;8.63;7.13;;;0.90;82.10;;;0.52;77.68;98550.41;5086146;28;20453;-78
2023/01/28 01:55:27;;;;;;;7.40;6.33;;;0.90;82.90;;;0.74;76.83;98545.81;5081707;28;20454;-78
2023/01/28 01:57:58;;;;;;;8.37;7.10;;;1.10;82.70;;;0.44;76.45;98505.06;5087775;28;20572;-81
2023/01/28 02:00:25;;;;;;;11.10;7.20;;;1.10;82.60;;;0.81;75.96;98543.44;5096954;28;20480;-78
2023/01/28 02:02:55;;;;;;;10.60;7.93;;;1.20;81.90;;;0.64;76.42;98524.53;5087696;28;20849;-81
2023/01/28 02:05:23;;;;;;;10.33;7.90;;;1.20;81.90;;;0.51;77.07;98532.75;5086646;28;20518;-78
2023/01/28 02:08:19;;;;;;;8.60;6.67;;;1.10;81.50;;;0.63;77.30;98554.78;5084892;28;20461;-80
2023/01/28 02:10:44;;;;;;;8.40;7.20;;;1.00;82.20;;;0.56;77.31;98556.28;5100759;28;20443;-77
2023/01/28 02:13:11;;;;;;;10.63;7.90;;;1.00;82.90;;;0.41;76.43;98492.03;5113183;28;20466;-76
2023/01/28 02:15:39;;;;;;;9.70;8.33;;;1.10;82.60;;;0.69;77.50;98561.34;5129051;27;20466;-74
2023/01/28 02:18:06;;;;;;;10.33;8.70;;;1.10;83.00;;;0.73;77.35;98552.13;5106321;28;20443;-80
2023/01/28 02:20:58;;;;;;;11.30;8.23;;;1.10;83.20;;;0.82;76.64;98555.75;5095062;28;20458;-77
2023/01/28 02:23:46;;;;;;;9.50;7.90;;;1.10;82.90;;;0.61;76.82;98553.22;5091414;28;20457;-76
2023/01/28 02:26:39;;;;;;;10.00;8.07;;;1.10;82.10;;;0.39;77.61;98545.34;5087236;28;20578;-77
2023/01/28 02:29:14;;;;;;;7.73;6.93;;;0.90;82.90;;;0.52;78.05;98558.38;5089417;28;20480;-78
2023/01/28 02:31:53;;;;;;;12.80;8.87;;;0.90;84.10;;;0.65;77.71;98559.94;5081311;28;20526;-81
2023/01/28 02:34:40;;;;;;;10.10;8.20;;;1.00;84.20;;;0.60;77.75;98555.03;5085010;28;20454;-78
2023/01/28 02:37:14;;;;;;;12.50;9.33;;;1.10;83.40;;;0.72;77.37;98550.44;5079640;28;20447;-79
2023/01/28 02:39:48;;;;;;;10.70;8.17;;;1.10;83.60;;;0.71;77.79;98554.06;5084511;28;20463;-77
2023/01/28 02:42:19;;;;;;;10.97;8.33;;;1.10;83.60;;;0.83;77.09;98544.13;5073692;28;20446;-80
2023/01/28 02:44:48;;;;;;;11.97;9.27;;;1.20;83.50;;;0.72;77.01;98550.44;5095592;28;20455;-79
2023/01/28 02:50:05;;;;;;;10.53;8.20;;;1.10;83.60;;;0.74;76.92;98553.78;5090739;28;20869;-78
2023/01/28 02:55:54;;;;;;;12.10;9.53;;;1.10;83.10;;;0.88;76.81;98549.03;5107596;28;20457;-80
2023/01/28 02:58:30;;;;;;;13.70;9.40;;;1.20;83.40;;;0.73;76.60;98562.75;5089607;28;20458;-79
2023/01/28 03:01:09;;;;;;;11.67;9.87;;;1.10;82.60;;;0.75;77.33;98558.13;5087642;28;20442;-77
2023/01/28 03:03:50;;;;;;;13.17;9.90;;;1.10;83.60;;;0.70;77.09;98563.84;5087522;28;20447;-78
2023/01/28 03:06:22;;;;;;;12.83;9.67;;;1.10;83.00;;;0.68;77.30;98570.28;5081392;28;20529;-81
2023/01/28 03:36:55;;;;;;;11.73;8.40;;;1.10;82.50;;;0.69;77.90;98594.09;5081504;28;20454;-77
2023/01/28 03:39:25;;;;;;;13.97;9.83;;;1.10;83.40;;;0.54;77.76;98575.06;5077387;28;20455;-79
2023/01/28 03:42:04;;;;;;;13.20;9.80;;;1.10;83.40;;;0.66;77.37;98588.22;5086074;28;20451;-77
2023/01/28 03:47:18;;;;;;;14.50;10.70;;;1.20;83.50;;;0.72;77.97;98595.66;5093396;28;20470;-78
2023/01/28 03:49:49;;;;;;;14.90;10.87;;;1.20;83.70;;;1.06;76.41;98589.91;5069840;28;20486;-79
2023/01/28 03:52:17;;;;;;;14.03;10.20;;;1.30;82.90;;;1.06;76.15;98587.25;5084927;28;20502;-79
2023/01/28 03:54:47;;;;;;;14.40;10.13;;;1.40;82.00;;;0.82;76.09;98582.34;5088936;28;20505;-80
2023/01/28 03:57:15;;;;;;;14.57;10.50;;;1.40;81.60;;;0.93;76.20;98595.53;5087799;28;20451;-81
2023/01/28 03:59:42;;;;;;;18.10;11.57;;;1.40;81.40;;;0.97;76.56;98604.91;5090420;28;20456;-80
2023/01/28 04:02:11;;;;;;;14.57;11.03;;;1.40;81.90;;;0.65;77.39;98602.47;5088210;28;21128;-78
2023/01/28 04:04:38;;;;;;;16.00;11.27;;;1.20;82.00;;;0.63;77.67;98588.50;5085802;28;20458;-77
2023/01/28 04:07:09;;;;;;;16.90;11.13;;;1.20;83.30;;;0.74;77.70;98607.00;5074409;28;20478;-81
2023/01/28 04:09:37;;;;;;;17.40;11.97;;;1.20;82.70;;;0.82;77.05;98604.47;5083589;28;20503;-79
2023/01/28 04:12:05;;;;;;;19.93;11.80;;;1.30;82.80;;;0.58;77.90;98606.69;5090125;28;20451;-79
2023/01/28 04:14:33;;;;;;;18.67;12.10;;;1.20;82.40;;;0.66;78.37;98607.69;5089746;28;20478;-80
2023/01/28 04:17:01;;;;;;;15.80;11.50;;;1.10;84.00;;;0.61;78.46;98617.03;5082668;28;20481;-78
2023/01/28 04:19:30;;;;;;;14.17;11.10;;;1.10;83.90;;;0.74;78.27;98616.78;5084384;28;20745;-79
2023/01/28 04:21:57;;;;;;;20.23;13.63;;;1.10;84.20;;;0.68;78.47;98612.84;5087814;28;20591;-79
2023/01/28 04:24:26;;;;;;;16.93;11.70;;;1.10;84.80;;;0.69;78.37;98610.06;5083844;28;20524;-80
2023/01/28 04:26:53;;;;;;;17.67;12.20;;;1.20;84.10;;;0.79;77.74;98618.03;5083934;28;20524;-81
2023/01/28 04:29:21;;;;;;;18.73;13.80;;;1.20;83.30;;;0.67;77.84;98612.03;5078948;28;20452;-78
2023/01/28 04:31:48;;;;;;;23.10;12.80;;;1.30;83.40;;;0.55;78.49;98613.09;5101961;28;20441;-81
2023/01/28 04:34:16;;;;;;;18.70;13.37;;;1.20;83.80;;;0.69;78.27;98619.88;5081299;28;20500;-79
2023/01/28 04:36:43;;;;;;;20.13;12.77;;;1.20;83.70;;;0.54;78.86;98633.56;5055764;28;21005;-79
2023/01/28 04:39:11;;;;;;;23.47;13.03;;;1.10;83.80;;;0.64;78.51;98632.72;5082416;28;20460;-78
2023/01/28 04:41:40;;;;;;;19.97;13.30;;;1.20;84.00;;;0.68;78.58;98631.47;5085729;28;20947;-80
2023/01/28 04:44:07;;;;;;;18.50;12.07;;;1.20;83.90;;;0.72;78.24;98640.88;5087820;28;20519;-80
2023/01/28 04:46:34;;;;;;;18.87;13.00;;;1.20;83.50;;;0.58;78.05;98606.69;5088421;28;20497;-81
2023/01/28 04:49:03;;;;;;;21.17;13.30;;;1.20;83.80;;;0.62;78.66;98629.38;5084502;28;21073;-80
2023/01/28 04:51:30;;;;;;;20.77;12.63;;;1.20;84.00;;;0.28;79.06;98591.50;5075906;28;20517;-75
2023/01/28 04:53:57;;;;;;;21.70;11.73;;;1.10;84.90;;;0.59;78.63;98616.34;5087913;28;20455;-79
2023/01/28 04:56:24;;;;;;;22.67;13.20;;;1.10;85.30;;;0.61;78.96;98622.38;5097959;28;20552;-80
2023/01/28 04:58:53;;;;;;;19.53;13.37;;;1.10;84.80;;;0.52;78.88;98618.72;5090154;28;20830;-78
2023/01/28 05:01:20;;;;;;;23.87;14.10;;;1.20;84.40;;;0.40;79.02;98610.00;5090180;28;20919;-79
2023/01/28 05:03:47;;;;;;;23.77;13.43;;;1.10;84.00;;;0.59;79.25;98624.31;5103039;28;20477;-79
2023/01/28 05:06:15;;;;;;;20.43;13.00;;;1.00;85.30;;;0.58;79.01;98625.31;5109113;28;20461;-74
2023/01/28 05:08:42;;;;;;;20.93;13.10;;;1.10;85.60;;;0.61;79.10;98623.22;5111145;28;20443;-75
2023/01/28 05:11:10;;;;;;;23.17;14.73;;;1.10;85.20;;;0.55;79.92;98623.75;5108877;28;20481;-75
2023/01/28 05:13:38;;;;;;;19.60;13.83;;;1.00;86.30;;;0.51;79.68;98623.16;5096150;28;20451;-77
2023/01/28 05:16:07;;;;;;;18.90;12.00;;;0.90;87.10;;;0.61;79.06;98623.22;5090649;28;20483;-81
2023/01/28 05:18:35;;;;;;;19.60;13.90;;;1.00;87.30;;;0.14;79.86;98584.72;5084779;28;20535;-80
2023/01/28 05:21:02;;;;;;;21.00;13.60;;;1.00;86.80;;;0.46;80.09;98627.25;5084306;28;20470;-79
2023/01/28 05:23:29;;;;;;;20.87;13.40;;;0.90;87.00;;;0.64;79.08;98630.91;5086503;28;20454;-81
2023/01/28 05:25:56;;;;;;;21.07;13.70;;;1.10;86.40;;;0.58;79.21;98612.00;5085107;28;20459;-80
2023/01/28 05:28:23;;;;;;;19.00;13.90;;;1.10;85.40;;;0.46;79.68;98625.41;5086560;28;20583;-79
2023/01/28 05:30:51;;;;;;;23.90;13.90;;;1.10;85.30;;;0.66;79.54;98625.44;5086171;28;20468;-78
2023/01/28 05:33:19;;;;;;;21.97;13.13;;;1.10;87.00;;;0.70;79.05;98634.84;5084253;28;20463;-79
2023/01/28 05:35:48;;;;;;;19.50;12.87;;;1.10;86.10;;;0.65;78.77;98623.75;5084120;28;20491;-80
2023/01/28 05:38:16;;;;;;;19.67;13.60;;;1.10;85.40;;;0.79;78.38;98630.53;5085235;28;20462;-79
2023/01/28 05:40:43;;;;;;;21.27;13.00;;;1.20;85.40;;;0.52;79.13;98630.16;5088120;28;20448;-80
2023/01/28 05:43:10;;;;;;;28.90;14.93;;;1.10;84.30;;;0.65;78.98;98645.03;5086712;28;20455;-80
2023/01/28 05:45:37;;;;;;;22.70;14.10;;;1.10;85.70;;;0.34;80.05;98637.13;5101507;28;20887;-76
2023/01/28 05:48:05;;;;;;;21.83;14.13;;;1.00;85.50;;;0.44;80.13;98626.50;5084009;28;20470;-80
2023/01/28 05:50:34;;;;;;;22.27;14.40;;;1.00;87.30;;;0.66;79.51;98625.44;5086223;28;20514;-81
2023/01/28 05:53:01;;;;;;;21.63;13.93;;;1.00;87.10;;;0.53;79.38;98642.53;5104917;28;20465;-79
2023/01/28 05:55:28;;;;;;;24.00;15.13;;;1.00;85.60;;;0.44;79.96;98640.66;5087732;28;20524;-79
2023/01/28 05:57:56;;;;;;;23.60;14.17;;;0.90;86.80;;;0.62;79.33;98629.38;5088519;28;20454;-81
2023/01/28 06:00:23;;;;;;;20.97;13.67;;;1.00;87.30;;;0.78;78.88;98645.63;5086287;28;20487;-82
2023/01/28 06:02:52;;;;;;;22.07;14.13;;;1.10;86.10;;;0.67;78.74;98645.75;5083241;28;20449;-83
2023/01/28 06:05:19;;;;;;;22.83;14.63;;;1.10;85.80;;;0.13;80.02;98603.47;5080430;28;20481;-83
2023/01/28 06:07:48;;;;;;;23.57;15.03;;;0.90;86.40;;;0.41;80.20;98646.25;5087901;28;20538;-78
2023/01/28 06:10:17;;;;;;;20.50;14.07;;;0.90;87.30;;;0.17;80.93;98638.63;5088254;28;20457;-79
2023/01/28 06:12:44;;;;;;;23.43;14.23;;;0.80;88.20;;;0.44;80.94;98656.63;5102840;28;20829;-80
2023/01/28 06:15:12;;;;;;;24.13;15.20;;;0.90;88.90;;;0.52;80.50;98667.41;5111541;28;20465;-82
2023/01/28 06:17:39;;;;;;;22.87;13.70;;;0.90;88.00;;;0.41;80.29;98639.09;5090727;28;20554;-80
2023/01/28 06:20:08;;;;;;;30.80;16.13;;;0.90;88.30;;;0.59;80.13;98656.25;5094686;28;20493;-81
2023/01/28 06:22:35;;;;;;;24.83;14.10;;;0.90;89.10;;;-0.07;80.28;98582.16;5095213;28;20447;-78
2023/01/28 06:25:07;;;;;;;23.10;15.30;;;0.90;87.50;;;0.49;79.99;98662.34;5087711;28;20573;-80
2023/01/28 06:27:34;;;;;;;24.13;14.37;;;0.90;87.80;;;0.10;80.73;98630.34;5089937;28;20462;-80
2023/01/28 06:30:02;;;;;;;20.73;12.60;;;0.80;87.80;;;0.31;80.97;98663.97;5082955;28;20462;-78
2023/01/28 06:32:29;;;;;;;20.47;12.90;;;0.80;89.30;;;0.27;80.93;98674.03;5091300;28;20444;-84
2023/01/28 06:34:56;;;;;;;22.70;14.10;;;0.80;88.90;;;0.37;80.93;98676.72;5089857;28;20471;-80
2023/01/28 06:37:24;;;;;;;24.33;14.40;;;0.80;89.40;;;0.36;80.60;98678.56;5086165;28;20486;-79
2023/01/28 06:39:51;;;;;;;20.83;13.70;;;0.80;89.00;;;0.40;80.26;98655.22;5085628;28;20505;-79
2023/01/28 06:42:19;;;;;;;21.63;13.00;;;0.90;88.60;;;0.63;79.71;98678.91;5079625;28;20883;-80
2023/01/28 06:44:47;;;;;;;19.90;12.63;;;1.00;88.10;;;0.58;79.55;98675.84;5082394;28;20447;-78
2023/01/28 06:47:14;;;;;;;23.67;14.13;;;1.00;87.40;;;0.77;79.24;98681.19;5087956;28;20479;-78
2023/01/28 06:49:41;;;;;;;20.30;13.27;;;1.10;87.40;;;0.64;79.23;98680.59;5084460;28;21014;-77
2023/01/28 06:52:08;;;;;;;20.67;13.03;;;1.10;86.30;;;0.62;79.45;98685.22;5083432;28;20516;-77
2023/01/28 06:54:35;;;;;;;21.10;13.50;;;1.10;86.90;;;0.90;80.77;98683.59;5090312;28;20449;-79
2023/01/28 06:57:02;;;;;;;21.23;12.97;;;1.20;90.30;;;0.80;79.05;98691.56;5088183;28;20459;-79
2023/01/28 06:59:31;;;;;;;25.10;13.97;;;1.30;86.90;;;0.83;78.99;98693.97;5087774;28;20460;-80
2023/01/28 07:01:58;;;;;;;17.30;12.30;;;1.30;85.70;;;0.90;79.30;98696.91;5081939;28;20474;-79
2023/01/28 07:04:25;;;;;;;19.50;13.07;;;1.20;86.50;;;0.82;78.76;98700.25;5084728;28;20573;-76
2023/01/28 07:06:53;;;;;;;19.10;12.73;;;1.30;85.50;;;0.72;79.25;98704.72;5083581;28;20511;-77
2023/01/28 07:09:20;;;;;;;19.47;13.40;;;1.30;85.20;;;0.73;78.68;98693.09;5087103;28;20455;-78
2023/01/28 07:11:47;;;;;;;22.40;13.43;;;1.20;85.50;;;0.71;79.64;98703.03;5079942;28;20459;-77
2023/01/28 07:14:14;;;;;;;19.70;12.17;;;1.30;86.10;;;0.83;79.01;98706.41;5073651;28;20474;-77
2023/01/28 07:16:42;;;;;;;20.87;12.93;;;1.30;86.00;;;0.74;78.64;98701.91;5071965;28;20503;-75
2023/01/28 07:19:10;;;;;;;19.03;12.73;;;1.30;85.10;;;0.87;78.54;98717.63;5079364;28;20846;-78
2023/01/28 07:21:37;;;;;;;17.53;11.50;;;1.30;85.20;;;0.70;79.13;98702.19;5081615;28;20539;-75
2023/01/28 07:24:05;;;;;;;22.23;12.77;;;1.20;84.90;;;0.84;79.70;98718.75;5084010;28;20781;-77
2023/01/28 07:26:32;;;;;;;18.97;12.30;;;1.30;86.80;;;0.59;79.52;98694.28;5073643;28;20469;-78
2023/01/28 07:29:00;;;;;;;19.73;12.50;;;1.30;86.10;;;0.83;78.88;98717.06;5083359;28;20470;-75
2023/01/28 07:31:27;;;;;;;22.90;13.00;;;1.30;85.30;;;0.82;79.53;98713.53;5082393;28;20600;-79
2023/01/28 07:33:55;;;;;;;22.03;12.73;;;1.30;86.20;;;0.78;79.11;98719.31;5079456;28;20449;-77
2023/01/28 07:36:22;;;;;;;17.90;12.17;;;1.40;85.50;;;0.78;78.59;98725.44;5090029;28;20462;-77
2023/01/28 07:38:49;;;;;;;16.80;11.37;;;1.30;85.20;;;0.82;79.50;98720.69;5081955;28;20981;-75
2023/01/28 07:41:17;;;;;;;18.57;12.30;;;1.30;85.30;;;0.82;79.65;98731.34;5076307;28;20486;-77
2023/01/28 07:43:44;;;;;;;19.07;11.40;;;1.40;85.80;;;0.89;79.21;98721.00;5077540;28;20464;-76
2023/01/28 07:46:12;;;;;;;18.27;11.63;;;1.30;85.90;;;0.89;79.30;98731.66;5078031;28;20451;-77
2023/01/28 07:48:39;;;;;;;18.17;12.17;;;1.30;85.90;;;0.91;79.02;98730.53;5074049;28;20487;-75
2023/01/28 07:51:07;;;;;;;15.97;10.53;;;1.40;85.50;;;0.94;78.88;98724.09;5077232;28;20461;-77
2023/01/28 07:53:35;;;;;;;18.30;11.20;;;1.40;85.50;;;0.90;79.06;98723.50;5080097;28;20556;-76
2023/01/28 07:56:04;;;;;;;16.80;11.17;;;1.40;85.50;;;1.05;78.53;98731.97;5077541;28;20470;-76
2023/01/28 07:58:34;;;;;;;18.07;11.50;;;1.50;85.30;;;1.21;77.96;98738.56;5094499;28;20468;-75
2023/01/28 08:01:03;;;;;;;18.37;10.50;;;1.60;84.60;;;1.31;77.57;98736.78;5117611;28;20456;-75
2023/01/28 08:03:31;;;;;;;16.10;10.50;;;1.70;84.10;;;1.12;77.77;98721.63;5098154;28;20447;-75
2023/01/28 08:05:58;;;;;;;17.50;11.23;;;1.70;83.60;;;1.40;77.80;98735.09;5089174;28;20987;-76
2023/01/28 08:08:28;;;;;;;17.87;11.30;;;1.80;84.30;;;1.26;77.50;98734.53;5087718;28;20496;-77
2023/01/28 08:10:55;;;;;;;16.60;11.30;;;1.70;83.00;;;1.26;77.88;98745.19;5079754;28;21030;-76
2023/01/28 08:13:22;;;;;;;13.63;9.93;;;1.70;83.70;;;1.09;78.33;98737.88;5079330;28;20460;-76
2023/01/28 08:15:49;;;;;;;15.50;9.90;;;1.70;83.60;;;1.32;77.95;98742.94;5076268;28;20518;-76
2023/01/28 08:18:17;;;;;;;16.70;10.40;;;1.70;84.40;;;1.23;77.71;98739.28;5081434;28;20452;-76
2023/01/28 08:20:46;;;;;;;17.90;10.23;;;1.80;83.40;;;0.94;77.78;98708.13;5077599;28;20452;-77
2023/01/28 08:23:15;;;;;;;13.47;9.43;;;1.70;83.30;;;1.24;77.58;98741.81;5080856;28;20491;-76
2023/01/28 08:25:44;;;;;;;12.37;7.93;;;1.80;83.20;;;1.44;76.94;98760.47;5082326;28;20454;-76
2023/01/28 08:28:13;;;;;;;14.53;9.03;;;1.80;83.00;;;1.49;76.81;98752.91;5078070;28;20528;-78
2023/01/28 08:30:41;;;;;;;13.80;9.50;;;1.90;82.40;;;1.45;75.68;98750.66;5080412;28;20938;-78
2023/01/28 08:33:12;;;;;;;12.53;9.17;;;2.00;81.60;;;1.56;76.18;98747.84;5080498;28;20463;-77
2023/01/28 08:35:40;;;;;;;11.33;8.17;;;2.00;81.40;;;1.50;76.36;98751.09;5080664;28;20452;-77
2023/01/28 08:38:10;;;;;;;11.80;8.57;;;2.00;81.30;;;1.57;75.41;98756.69;5084138;28;20475;-82
2023/01/28 08:40:38;;;;;;;11.97;9.10;;;2.00;80.60;;;1.72;75.32;98738.47;5073035;28;20439;-72
2023/01/28 08:43:07;;;;;;;13.33;7.90;;;2.10;80.80;;;1.57;74.98;98741.53;5078123;28;20506;-74
2023/01/28 08:45:34;;;;;;;11.37;7.73;;;2.10;80.20;;;1.68;74.82;98746.75;5078977;28;20926;-74
2023/01/28 08:48:03;;;;;;;11.50;8.10;;;2.20;80.10;;;1.69;74.53;98756.41;5081242;28;20471;-75
2023/01/28 08:50:33;;;;;;;10.00;7.27;;;2.20;79.70;;;1.72;73.80;98757.09;5071367;28;20482;-73
2023/01/28 08:53:02;;;;;;;10.67;6.60;;;2.20;78.90;;;1.75;74.18;98762.19;5078561;28;20487;-73
2023/01/28 08:55:30;;;;;;;8.60;6.23;;;2.20;79.10;;;1.90;73.63;98763.44;5070814;28;20454;-74
2023/01/28 08:57:57;;;;;;;9.87;6.83;;;2.40;79.00;;;1.85;73.60;98755.00;5073644;28;20861;-75
2023/01/28 09:00:26;;;;;;;6.97;5.50;;;2.40;78.60;;;1.68;73.72;98770.72;5073959;28;20506;-72
2023/01/28 09:02:54;;;;;;;8.17;5.63;;;2.40;78.10;;;1.80;73.13;98770.59;5070754;28;20457;-75
2023/01/28 09:05:22;;;;;;;5.70;4.50;;;2.30;78.10;;;1.75;71.76;98759.50;5080926;28;20447;-73
2023/01/28 09:07:49;;;;;;;6.10;4.40;;;2.40;77.50;;;1.69;72.03;98769.72;5077079;28;20524;-68
2023/01/28 09:10:19;;;;;;;4.70;4.20;;;2.30;77.10;;;1.29;72.96;98760.03;5091096;28;20877;-72
2023/01/28 09:12:46;;;;;;;5.50;4.30;;;2.10;77.10;;;1.25;73.53;98771.94;5082435;28;20554;-72
2023/01/28 09:15:19;;;;;;;4.00;3.60;;;2.00;77.30;;;1.25;72.83;98763.94;5074789;28;20466;-72
2023/01/28 09:17:51;;;;;;;5.87;4.07;;;1.90;77.10;;;1.26;72.60;98760.28;5077512;28;20447;-74
2023/01/28 09:20:26;;;;;;;4.50;4.10;;;2.00;77.10;;;1.59;72.50;98776.03;5078754;28;20474;-73
2023/01/28 09:22:53;;;;;;;5.53;4.20;;;2.10;77.20;;;1.59;72.24;98776.03;5081869;28;21212;-73
2023/01/28 09:25:21;;;;;;;5.47;4.30;;;2.10;77.00;;;1.73;72.18;98778.28;5091858;28;20448;-74
2023/01/28 09:27:48;;;;;;;4.73;4.23;;;2.20;77.10;;;1.70;71.35;98776.75;5076592;28;21277;-73
2023/01/28 09:30:16;;;;;;;4.77;4.37;;;2.20;76.50;;;1.75;71.76;98791.50;5078278;28;20452;-77
2023/01/28 09:32:44;;;;;;;4.73;3.30;;;2.30;76.60;;;1.34;70.85;98696.56;5068648;28;20606;-75
2023/01/28 09:35:14;;;;;;;5.13;4.03;;;2.30;76.30;;;1.98;70.62;98787.53;5073777;28;20574;-77
2023/01/28 09:37:41;;;;;;;4.23;3.83;;;2.40;76.20;;;1.82;70.64;98787.28;5079025;28;20450;-77
2023/01/28 09:40:16;;;;;;;3.80;3.43;;;2.40;75.90;;;1.76;70.29;98783.34;5078208;28;20821;-80
2023/01/28 09:43:02;;;;;;;4.63;3.80;;;2.40;75.60;;;1.44;71.11;98795.09;5079817;28;21033;-77
2023/01/28 09:45:37;;;;;;;3.83;3.30;;;2.20;75.40;;;1.40;71.21;98805.16;5077859;28;20446;-76
2023/01/28 09:48:12;;;;;;;3.87;3.47;;;2.00;75.40;;;1.33;70.71;98793.41;5084154;28;20494;-76
2023/01/28 09:50:45;;;;;;;4.30;3.20;;;2.00;75.20;;;1.47;70.60;98799.31;5055060;28;20916;-78
2023/01/28 09:53:18;;;;;;;3.50;2.90;;;2.00;75.50;;;1.56;70.54;98806.47;5082358;28;20814;-78
2023/01/28 09:55:49;;;;;;;3.63;3.20;;;2.10;75.50;;;1.64;70.18;98795.09;5084826;28;20835;-78
2023/01/28 09:58:17;;;;;;;4.00;3.50;;;2.10;75.30;;;1.72;69.45;98797.94;5085540;28;20939;-77
2023/01/28 10:00:54;;;;;;;3.60;3.30;;;2.20;75.20;;;1.75;69.66;98787.00;5079825;28;20795;-75
2023/01/28 10:03:47;;;;;;;5.10;3.77;;;2.30;75.10;;;1.78;69.16;98781.38;5076194;28;20455;-77
2023/01/28 10:06:32;;;;;;;4.43;3.60;;;2.50;74.60;;;1.84;69.39;98811.94;5080896;28;20455;-78
2023/01/28 10:09:21;;;;;;;3.40;3.07;;;2.40;74.40;;;1.84;68.45;98802.16;5068960;28;20979;-75
2023/01/28 10:12:30;;;;;;;3.43;3.13;;;2.50;74.00;;;1.79;68.47;98804.38;5094385;28;20455;-77
2023/01/28 10:15:24;;;;;;;3.80;3.40;;;2.50;73.70;;;1.64;68.56;98782.63;5048305;28;20903;-76
2023/01/28 10:17:57;;;;;;;3.40;3.10;;;2.40;73.40;;;1.84;68.64;98790.63;5083075;28;20823;-76
2023/01/28 10:20:29;;;;;;;3.80;3.50;;;2.40;73.80;;;1.93;68.07;98803.13;5086034;28;20463;-76
2023/01/28 10:23:06;;;;;;;3.93;3.60;;;2.50;73.30;;;2.01;68.25;98793.56;5081741;28;20465;-76
2023/01/28 10:25:35;;;;;;;3.73;3.40;;;2.60;73.50;;;2.17;67.20;98788.50;5081000;28;20442;-76
2023/01/28 10:28:13;;;;;;;4.27;3.87;;;2.70;73.10;;;2.06;67.25;98794.00;5078454;28;20481;-77
2023/01/28 10:30:43;;;;;;;3.60;3.30;;;2.70;72.80;;;1.90;67.26;98803.41;5086105;28;20803;-76
2023/01/28 10:33:19;;;;;;;4.83;3.67;;;2.60;72.50;;;1.69;67.83;98764.41;5084100;28;20495;-79
2023/01/28 10:35:47;;;;;;;4.03;3.63;;;2.50;72.70;;;2.14;66.90;98790.63;5077415;28;20511;-77
2023/01/28 10:38:22;;;;;;;3.33;3.03;;;2.60;72.70;;;2.12;66.99;98775.63;5082281;28;20460;-76
2023/01/28 10:40:50;;;;;;;3.40;3.10;;;2.70;72.50;;;2.29;66.39;98783.88;5077661;28;20463;-78
2023/01/28 10:43:22;;;;;;;5.13;3.90;;;2.80;72.00;;;2.44;65.95;98783.41;5084943;28;20455;-77
2023/01/28 10:45:58;;;;;;;4.37;3.20;;;2.90;71.90;;;2.40;66.06;98766.84;5094483;28;20456;-79
2023/01/28 10:48:30;;;;;;;4.07;3.57;;;3.00;71.70;;;2.65;65.17;98778.69;5085810;28;20511;-78
2023/01/28 10:51:00;;;;;;;4.20;3.63;;;3.20;71.50;;;2.62;65.64;98775.47;5085401;28;20921;-78
2023/01/28 10:53:37;;;;;;;3.53;3.20;;;3.20;71.30;;;2.68;64.31;98766.91;5100772;28;20448;-77
2023/01/28 10:56:08;;;;;;;4.30;3.17;;;3.30;70.50;;;2.64;63.98;98765.50;5108867;28;20435;-79
2023/01/28 10:58:48;;;;;;;4.63;2.70;;;3.30;69.90;;;2.61;64.82;98785.31;5110689;28;20462;-80
2023/01/28 11:01:15;;;;;;;3.50;2.70;;;3.20;70.10;;;2.54;64.52;98786.88;5083848;28;20445;-77
2023/01/28 11:03:55;;;;;;;4.30;3.30;;;3.20;69.90;;;2.41;64.59;98736.53;5090201;28;20458;-77
2023/01/28 11:06:27;;;;;;;3.70;2.90;;;3.30;69.90;;;2.72;64.90;98789.63;5089225;28;20549;-80
2023/01/28 11:08:56;;;;;;;3.60;3.30;;;3.30;70.00;;;3.03;63.53;98777.81;5085987;28;20505;-78
2023/01/28 11:11:26;;;;;;;2.90;2.70;;;3.40;70.00;;;2.93;63.77;98775.22;5068549;28;20479;-77
2023/01/28 11:13:57;;;;;;;3.53;3.10;;;3.50;69.40;;;2.98;63.76;98788.97;5082059;28;20928;-78